Time;durP1;ratioP1;P1;durP2;ratioP2;P2;SDS_P1;SDS_P2;PMS_P1;PMS_P2;Temp;Humidity;BMP_temperature;BMP_pressure;BME280_temperature;BME280_humidity;BME280_pressure;Samples;Min_cycle;Max_cycle;Signal;HPM_P1;HPM_P2
2021/01/01 00:01:36;;;;;;;4.22;3.13;;;;;;;23.88;41.45;94390.94;5031635;28;20060;-74
2021/01/01 00:04:02;;;;;;;6.85;4.22;;;;;;;23.86;41.72;94386.56;5031195;28;20588;-75
2021/01/01 00:06:28;;;;;;;5.18;3.50;;;;;;;23.79;41.93;94400.81;5013770;28;20399;-74
2021/01/01 00:08:53;;;;;;;4.78;3.90;;;;;;;23.73;41.96;94392.00;5031394;28;20152;-75
2021/01/01 00:11:19;;;;;;;5.53;4.15;;;;;;;23.66;42.00;94395.38;5031364;28;20044;-74
2021/01/01 00:13:44;;;;;;;5.45;3.95;;;;;;;23.65;42.05;94393.91;5029838;28;20084;-74
2021/01/01 00:16:11;;;;;;;5.38;4.05;;;;;;;23.54;41.85;94396.81;5029634;28;20033;-74
2021/01/01 00:18:37;;;;;;;6.40;4.20;;;;;;;23.58;42.69;94416.31;5029077;28;20025;-74
2021/01/01 00:21:02;;;;;;;8.07;4.85;;;;;;;23.53;42.86;94409.00;5031117;28;20029;-74
2021/01/01 00:23:28;;;;;;;6.13;4.30;;;;;;;23.50;42.34;94404.59;5031420;28;20541;-74
2021/01/01 00:25:53;;;;;;;6.20;4.35;;;;;;;23.46;42.38;94409.59;5030828;28;20040;-75
2021/01/01 00:28:19;;;;;;;6.03;4.63;;;;;;;23.42;42.78;94420.06;5031118;28;20445;-74
2021/01/01 00:30:44;;;;;;;6.65;4.95;;;;;;;23.35;42.89;94409.06;5030802;28;20025;-74
2021/01/01 00:33:09;;;;;;;6.40;5.10;;;;;;;23.30;42.71;94418.81;5030791;28;20057;-74
2021/01/01 00:35:35;;;;;;;7.93;5.38;;;;;;;23.24;42.82;94420.91;5031178;28;20103;-75
2021/01/01 00:38:01;;;;;;;7.68;5.38;;;;;;;23.24;42.87;94426.34;5013296;28;20021;-74
2021/01/01 00:40:26;;;;;;;6.60;5.18;;;;;;;23.19;42.96;94418.28;5031221;28;20026;-74
2021/01/01 00:42:52;;;;;;;8.07;5.70;;;;;;;23.12;43.21;94414.22;5031273;28;20028;-75
2021/01/01 00:45:17;;;;;;;6.60;5.13;;;;;;;23.13;43.54;94432.00;5030546;28;20029;-74
2021/01/01 00:47:49;;;;;;;8.07;5.97;;;;;;;23.12;42.99;94430.53;5030223;28;20048;-74
2021/01/01 00:50:15;;;;;;;7.60;6.07;;;;;;;23.02;43.13;94426.03;5030394;28;20029;-74
2021/01/01 00:52:40;;;;;;;7.57;5.68;;;;;;;23.02;43.22;94432.19;5030868;28;20403;-75
2021/01/01 00:55:07;;;;;;;7.88;6.30;;;;;;;22.99;43.42;94438.69;5012902;28;20486;-75
2021/01/01 00:57:32;;;;;;;8.93;6.10;;;;;;;22.99;43.60;94438.69;5031822;28;20490;-75
2021/01/01 00:59:58;;;;;;;9.20;6.68;;;;;;;22.97;43.63;94435.75;5031373;28;20036;-75
2021/01/01 01:02:23;;;;;;;8.48;6.50;;;;;;;22.94;43.30;94442.22;5031360;28;20021;-75
2021/01/01 01:04:49;;;;;;;9.07;6.63;;;;;;;22.86;43.75;94442.59;5031862;28;20558;-75
2021/01/01 01:07:14;;;;;;;9.18;6.60;;;;;;;22.73;43.56;94426.22;5030382;28;20021;-75
2021/01/01 01:09:40;;;;;;;10.25;7.57;;;;;;;22.74;43.68;94433.13;5031029;28;20021;-75
2021/01/01 01:12:06;;;;;;;10.18;7.65;;;;;;;22.79;43.33;94440.47;5012962;28;20021;-74
2021/01/01 01:14:31;;;;;;;9.68;7.20;;;;;;;22.78;43.87;94433.56;5030705;28;20063;-75
2021/01/01 01:16:56;;;;;;;10.80;7.72;;;;;;;22.73;43.92;94439.81;5012319;28;20028;-75
2021/01/01 01:19:22;;;;;;;9.05;7.22;;;;;;;22.75;43.75;94456.38;5012627;28;20032;-75
2021/01/01 01:21:48;;;;;;;11.05;8.00;;;;;;;22.69;43.86;94453.00;5029760;28;20183;-74
2021/01/01 01:24:13;;;;;;;11.10;7.93;;;;;;;22.67;43.97;94450.06;5029717;28;20025;-74
2021/01/01 01:26:39;;;;;;;10.88;8.20;;;;;;;22.69;43.85;94463.88;5012787;28;20032;-75
2021/01/01 01:29:04;;;;;;;10.05;7.57;;;;;;;22.69;43.82;94469.31;5029909;28;20109;-75
2021/01/01 01:31:30;;;;;;;10.30;7.88;;;;;;;22.63;43.50;94449.63;5029926;28;20021;-75
2021/01/01 01:33:55;;;;;;;10.73;7.95;;;;;;;22.62;43.97;94454.34;5012416;28;20057;-75
2021/01/01 01:36:21;;;;;;;12.15;8.88;;;;;;;22.62;44.10;94456.34;5030153;28;20018;-75
2021/01/01 01:38:46;;;;;;;12.57;8.65;;;;;;;22.55;44.00;94454.94;5012407;28;20029;-74
2021/01/01 01:41:12;;;;;;;11.77;8.43;;;;;;;22.55;43.95;94459.63;5029426;28;20029;-75
2021/01/01 01:43:37;;;;;;;13.80;9.05;;;;;;;22.47;43.99;94445.16;5030453;28;20056;-75
2021/01/01 01:46:02;;;;;;;11.50;9.25;;;;;;;22.52;43.91;94460.66;5029620;28;20025;-75
2021/01/01 01:48:36;;;;;;;12.43;9.10;;;;;;;22.50;43.89;94463.19;5030172;28;20084;-75
2021/01/01 01:51:01;;;;;;;11.98;9.25;;;;;;;22.50;44.21;94474.06;5029703;28;20072;-75
2021/01/01 01:53:29;;;;;;;12.40;9.15;;;;;;;22.49;44.16;94472.59;5012374;28;20048;-75
2021/01/01 01:55:55;;;;;;;12.65;9.38;;;;;;;22.33;44.28;94454.53;5012381;28;20025;-75
2021/01/01 01:58:21;;;;;;;13.60;9.52;;;;;;;22.45;44.12;94485.75;4995673;28;20572;-75
2021/01/01 02:03:15;;;;;;;12.52;9.48;;;;;;;22.41;44.21;94477.16;5029077;28;20041;-75
2021/01/01 02:05:40;;;;;;;14.63;10.40;;;;;;;22.38;44.15;94483.63;5012354;28;20025;-76
2021/01/01 02:08:06;;;;;;;13.15;9.80;;;;;;;22.25;44.28;94464.50;5012642;28;20486;-75
2021/01/01 02:10:32;;;;;;;12.70;10.07;;;;;;;22.37;44.17;94476.72;5012139;28;20505;-76
2021/01/01 02:12:57;;;;;;;14.05;10.30;;;;;;;22.23;44.61;94466.28;4995472;28;20179;-76
2021/01/01 02:15:22;;;;;;;14.98;10.75;;;;;;;22.34;44.22;94472.31;4995265;28;20026;-75
2021/01/01 02:17:48;;;;;;;13.90;10.70;;;;;;;22.33;44.28;94479.00;5029564;28;20107;-75
2021/01/01 02:20:14;;;;;;;13.32;10.15;;;;;;;22.29;43.96;94481.28;5029615;28;20571;-75
2021/01/01 02:22:40;;;;;;;15.43;10.82;;;;;;;22.30;44.36;94488.19;5029465;28;20047;-76
2021/01/01 02:25:07;;;;;;;13.05;10.38;;;;;;;22.18;44.39;94470.53;5029522;28;20017;-75
2021/01/01 02:27:32;;;;;;;15.23;11.23;;;;;;;22.28;44.46;94490.69;5029427;28;20018;-75
2021/01/01 02:29:58;;;;;;;13.73;10.50;;;;;;;22.27;44.42;94494.66;5029534;28;20021;-75
2021/01/01 02:32:23;;;;;;;13.57;10.30;;;;;;;22.25;44.11;94486.25;5029426;28;20062;-75
2021/01/01 02:34:48;;;;;;;13.77;10.45;;;;;;;22.22;44.44;94498.16;5029646;28;20033;-75
2021/01/01 02:37:14;;;;;;;14.50;10.85;;;;;;;22.07;44.37;94476.09;5028911;28;20025;-76
2021/01/01 02:39:40;;;;;;;15.77;11.50;;;;;;;22.04;44.37;94468.94;5029353;28;20028;-75
2021/01/01 02:42:05;;;;;;;16.52;11.43;;;;;;;22.12;44.60;94488.13;5028440;28;20477;-76
2021/01/01 02:44:31;;;;;;;14.93;10.80;;;;;;;22.06;44.41;94480.06;5028577;28;20028;-76
2021/01/01 02:47:03;;;;;;;15.63;11.50;;;;;;;22.15;44.44;94501.47;5029573;28;20492;-75
2021/01/01 02:49:29;;;;;;;14.65;11.20;;;;;;;22.05;44.39;94489.47;5029909;28;20030;-76
2021/01/01 02:51:55;;;;;;;15.82;12.00;;;;;;;22.16;44.58;94504.91;5029915;28;20030;-75
2021/01/01 02:54:20;;;;;;;15.75;11.77;;;;;;;22.12;44.33;94510.66;5030079;28;20021;-75
2021/01/01 02:56:46;;;;;;;15.65;11.57;;;;;;;22.12;44.55;94513.38;5030225;28;20033;-75
2021/01/01 02:59:11;;;;;;;14.68;11.57;;;;;;;22.07;44.28;94502.53;5029736;28;20040;-76
2021/01/01 03:01:36;;;;;;;15.65;12.10;;;;;;;22.10;44.62;94504.97;5029003;28;20494;-75
2021/01/01 03:04:02;;;;;;;15.18;11.88;;;;;;;22.07;44.61;94506.00;5028940;28;20087;-75
2021/01/01 03:06:28;;;;;;;15.85;12.00;;;;;;;21.92;44.71;94481.22;5029613;28;20022;-75
2021/01/01 03:08:53;;;;;;;15.32;11.88;;;;;;;21.90;44.47;94476.78;5031088;28;20091;-75
2021/01/01 03:11:19;;;;;;;15.25;12.05;;;;;;;22.06;44.55;94507.25;5033229;28;20086;-75
2021/01/01 03:13:45;;;;;;;17.70;12.18;;;;;;;22.06;44.67;94501.81;5032828;28;20072;-75
2021/01/01 03:16:10;;;;;;;15.88;11.95;;;;;;;21.86;44.58;94470.94;5032288;28;20017;-75
2021/01/01 03:18:36;;;;;;;16.55;12.65;;;;;;;21.96;44.66;94495.25;5032531;28;20104;-75
2021/01/01 03:21:01;;;;;;;17.17;11.63;;;;;;;22.02;44.50;94506.81;5031168;28;20025;-75
2021/01/01 03:23:27;;;;;;;14.88;11.60;;;;;;;22.03;44.67;94500.13;5034333;28;20026;-75
2021/01/01 03:25:52;;;;;;;17.63;12.55;;;;;;;22.01;44.66;94510.75;5033879;28;20434;-75
2021/01/01 03:28:18;;;;;;;15.82;12.02;;;;;;;22.01;44.62;94499.16;5034089;28;20025;-75
2021/01/01 03:30:43;;;;;;;16.27;11.90;;;;;;;21.90;44.43;94507.44;5034200;28;20411;-76
2021/01/01 03:33:09;;;;;;;16.52;12.05;;;;;;;21.92;44.69;94505.66;5033493;28;20517;-76
2021/01/01 03:35:34;;;;;;;18.48;12.75;;;;;;;21.98;44.72;94511.78;5033456;28;20025;-75
2021/01/01 03:38:00;;;;;;;17.02;12.93;;;;;;;21.98;44.76;94516.50;5034124;28;20486;-75
2021/01/01 03:40:26;;;;;;;16.75;11.93;;;;;;;21.83;44.76;94493.69;5015862;28;20033;-76
2021/01/01 03:42:51;;;;;;;18.55;13.30;;;;;;;21.82;44.78;94484.06;5032472;28;20138;-76
2021/01/01 03:45:17;;;;;;;16.05;12.23;;;;;;;21.95;44.58;94507.38;5033569;28;20503;-76
2021/01/01 03:47:42;;;;;;;17.85;12.65;;;;;;;21.95;44.72;94501.19;5015423;28;20042;-75
2021/01/01 03:50:09;;;;;;;15.30;11.60;;;;;;;21.93;44.43;94498.28;5033128;28;20033;-76
2021/01/01 03:52:34;;;;;;;15.65;12.65;;;;;;;21.91;44.69;94495.31;5032888;28;20022;-76
2021/01/01 03:55:00;;;;;;;16.73;12.60;;;;;;;21.98;44.67;94511.78;5032560;28;20521;-76
2021/01/01 03:57:25;;;;;;;18.63;13.18;;;;;;;21.82;44.69;94473.19;5032763;28;20536;-75
2021/01/01 03:59:51;;;;;;;16.02;12.52;;;;;;;22.10;44.54;94513.13;5031565;28;20025;-76
2021/01/01 04:02:16;;;;;;;19.20;13.52;;;;;;;22.12;44.47;94516.09;5031815;28;20021;-75
2021/01/01 04:04:42;;;;;;;17.20;12.50;;;;;;;22.14;44.32;94519.03;5033248;28;20032;-76
2021/01/01 04:07:07;;;;;;;17.60;12.77;;;;;;;22.18;44.37;94524.91;5032852;28;20018;-75
2021/01/01 04:09:33;;;;;;;15.68;12.27;;;;;;;22.20;44.29;94527.84;5033246;28;20034;-76
2021/01/01 04:11:58;;;;;;;16.70;13.00;;;;;;;22.10;44.24;94512.41;5032761;28;20010;-75
2021/01/01 04:14:23;;;;;;;16.52;12.32;;;;;;;22.27;44.21;94534.72;5033088;28;20025;-76
2021/01/01 04:16:49;;;;;;;16.05;11.77;;;;;;;22.28;44.10;94539.63;5030988;28;20384;-76
2021/01/01 04:19:15;;;;;;;16.98;12.55;;;;;;;22.31;44.03;94535.16;5033267;28;20025;-76
2021/01/01 04:21:47;;;;;;;16.20;11.70;;;;;;;22.33;44.05;94535.38;5033339;28;20029;-75
2021/01/01 04:24:14;;;;;;;16.88;11.95;;;;;;;22.34;44.05;94543.03;5014953;28;20060;-75
2021/01/01 04:26:39;;;;;;;16.65;12.85;;;;;;;22.35;43.94;94544.50;5032480;28;20029;-75
2021/01/01 04:29:04;;;;;;;16.83;12.48;;;;;;;22.36;44.04;94543.25;5032916;28;20509;-76
2021/01/01 04:31:33;;;;;;;15.07;12.48;;;;;;;22.31;43.89;94538.59;5032559;28;20025;-76
2021/01/01 04:33:58;;;;;;;15.35;12.07;;;;;;;22.36;43.74;94548.72;5031396;28;20442;-75
2021/01/01 04:36:23;;;;;;;16.08;11.55;;;;;;;22.41;43.84;94547.16;5014980;28;20028;-76
2021/01/01 04:38:49;;;;;;;15.45;11.38;;;;;;;22.30;43.87;94531.72;5014368;28;20025;-75
2021/01/01 04:41:14;;;;;;;17.52;12.55;;;;;;;22.40;44.09;94535.53;5032666;28;20021;-76
2021/01/01 04:43:40;;;;;;;15.48;11.18;;;;;;;22.43;43.74;94545.38;5015511;28;20025;-75
2021/01/01 04:46:05;;;;;;;14.43;11.50;;;;;;;22.44;43.84;94552.31;5032331;28;20021;-75
2021/01/01 04:48:31;;;;;;;15.98;11.63;;;;;;;22.39;43.63;94538.75;5014637;28;20318;-76
2021/01/01 04:50:56;;;;;;;15.25;12.07;;;;;;;22.46;43.74;94555.25;5032520;28;20059;-75
2021/01/01 04:53:22;;;;;;;15.50;11.65;;;;;;;22.47;43.72;94551.28;5032650;28;20032;-76
2021/01/01 04:55:48;;;;;;;15.73;12.00;;;;;;;22.49;43.84;94554.22;5015076;28;20409;-76
2021/01/01 04:58:14;;;;;;;15.75;11.60;;;;;;;22.47;43.55;94551.28;5032753;28;20064;-76
2021/01/01 05:00:39;;;;;;;15.48;11.57;;;;;;;22.50;43.73;94567.31;5032211;28;20025;-76
2021/01/01 05:03:05;;;;;;;16.75;12.07;;;;;;;22.50;43.58;94569.31;5031262;28;20021;-76
2021/01/01 05:05:31;;;;;;;15.68;11.38;;;;;;;22.49;43.58;94565.09;5031166;28;20087;-76
2021/01/01 05:07:57;;;;;;;15.45;11.85;;;;;;;22.52;43.48;94572.97;5030518;28;20486;-76
2021/01/01 05:10:22;;;;;;;15.88;12.02;;;;;;;22.53;43.58;94581.88;5013416;28;20025;-76
2021/01/01 05:12:49;;;;;;;16.00;11.40;;;;;;;22.51;43.77;94562.59;5029898;28;20036;-76
2021/01/01 05:15:32;;;;;;;16.13;11.25;;;;;;;22.50;43.40;94578.19;5013685;28;20095;-76
2021/01/01 05:17:57;;;;;;;15.90;11.65;;;;;;;22.54;43.59;94586.06;5030904;28;20029;-76
2021/01/01 05:20:23;;;;;;;16.60;11.50;;;;;;;22.41;43.42;94563.50;5030439;28;20056;-75
2021/01/01 05:22:48;;;;;;;15.55;11.50;;;;;;;22.49;43.55;94587.59;5013677;28;20040;-75
2021/01/01 05:25:17;;;;;;;16.35;11.75;;;;;;;22.50;43.61;94586.34;5031824;28;20045;-76
2021/01/01 05:27:46;;;;;;;14.52;10.93;;;;;;;22.56;43.47;94586.28;5032237;28;20057;-76
2021/01/01 05:30:12;;;;;;;13.95;11.02;;;;;;;22.57;43.44;94593.19;5032312;28;20025;-76
2021/01/01 05:32:37;;;;;;;14.93;10.77;;;;;;;22.57;43.32;94598.63;5030961;28;20437;-75
2021/01/01 05:35:03;;;;;;;15.05;10.90;;;;;;;22.58;43.45;94611.00;5014204;28;20040;-73
2021/01/01 05:37:33;;;;;;;14.52;10.88;;;;;;;22.57;43.18;94610.28;5030904;28;20025;-76
2021/01/01 05:40:06;;;;;;;14.68;10.77;;;;;;;22.57;43.23;94610.28;4994993;28;20022;-76
2021/01/01 05:42:31;;;;;;;13.95;10.18;;;;;;;22.55;43.58;94612.75;5011696;28;20032;-76
2021/01/01 05:44:57;;;;;;;13.32;10.82;;;;;;;22.55;43.42;94612.03;5011156;28;20113;-76
2021/01/01 05:47:22;;;;;;;14.98;10.93;;;;;;;22.51;43.15;94603.41;5012087;28;20033;-76
2021/01/01 05:49:48;;;;;;;15.32;11.00;;;;;;;22.58;43.11;94621.88;5010422;28;20029;-75
2021/01/01 05:52:16;;;;;;;14.82;11.57;;;;;;;22.59;43.43;94623.38;5014410;28;20037;-75
2021/01/01 05:54:47;;;;;;;14.35;10.75;;;;;;;22.54;43.12;94615.97;5031392;28;20029;-76
2021/01/01 05:57:14;;;;;;;14.00;10.43;;;;;;;22.62;43.20;94627.78;5029362;28;20078;-75
2021/01/01 05:59:41;;;;;;;13.30;10.07;;;;;;;22.62;42.91;94627.78;5030569;28;20021;-75
2021/01/01 06:02:10;;;;;;;16.30;11.05;;;;;;;22.49;42.84;94603.19;5030149;28;20521;-75
2021/01/01 06:04:35;;;;;;;14.65;11.20;;;;;;;22.63;42.96;94634.69;5012442;28;20061;-75
2021/01/01 06:07:02;;;;;;;14.27;10.38;;;;;;;22.70;42.72;94639.56;5013267;28;20053;-76
2021/01/01 06:09:29;;;;;;;13.75;10.65;;;;;;;22.74;42.50;94640.00;5031557;28;20037;-75
2021/01/01 06:12:02;;;;;;;14.00;10.27;;;;;;;22.72;42.67;94643.25;5030732;28;20033;-75
2021/01/01 06:14:35;;;;;;;14.27;10.15;;;;;;;22.80;42.43;94643.41;5020884;28;20344;-72
2021/01/01 06:17:10;;;;;;;14.50;10.68;;;;;;;22.82;42.39;94640.88;5012026;28;20026;-73
2021/01/01 06:19:50;;;;;;;13.77;10.23;;;;;;;22.84;42.82;94649.28;5026604;28;20136;-73
2021/01/01 06:22:16;;;;;;;13.07;9.93;;;;;;;22.85;42.61;94661.66;5028162;28;20021;-73
2021/01/01 06:24:43;;;;;;;12.93;9.73;;;;;;;22.86;42.77;94663.13;5029058;28;20036;-74
2021/01/01 06:27:08;;;;;;;12.18;10.00;;;;;;;22.86;42.15;94660.41;5027865;28;20111;-71
2021/01/01 06:29:34;;;;;;;13.65;10.52;;;;;;;22.86;42.34;94663.13;5010159;28;20774;-72
2021/01/01 06:32:00;;;;;;;13.88;10.25;;;;;;;22.88;42.24;94663.34;4994195;28;20033;-73
2021/01/01 06:34:29;;;;;;;13.10;10.32;;;;;;;22.90;42.40;94667.75;5010588;28;20026;-71
2021/01/01 06:36:54;;;;;;;11.80;9.65;;;;;;;22.86;42.18;94665.84;5028139;28;20104;-72
2021/01/01 06:39:38;;;;;;;13.40;10.00;;;;;;;22.94;42.19;94676.41;5007990;28;20040;-72
2021/01/01 06:42:04;;;;;;;13.75;9.95;;;;;;;22.96;42.22;94684.78;5027072;28;20036;-71
2021/01/01 06:44:37;;;;;;;12.95;9.82;;;;;;;22.96;42.29;94684.78;5027974;28;20026;-73
2021/01/01 06:47:04;;;;;;;10.90;8.63;;;;;;;22.98;42.02;94693.16;5010647;28;20174;-77
2021/01/01 06:49:38;;;;;;;12.30;9.57;;;;;;;22.98;42.54;94693.16;5028253;28;20478;-72
2021/01/01 06:52:13;;;;;;;13.30;9.95;;;;;;;22.98;42.54;94701.34;5028085;28;20429;-74
2021/01/01 06:54:57;;;;;;;11.20;9.07;;;;;;;22.97;42.57;94691.72;5029371;28;20454;-72
2021/01/01 06:57:24;;;;;;;11.38;9.18;;;;;;;22.84;42.64;94676.50;5030849;28;20026;-73
2021/01/01 06:59:53;;;;;;;11.88;9.30;;;;;;;22.78;42.66;94670.38;5016591;28;20029;-80
2021/01/01 07:02:20;;;;;;;12.93;9.52;;;;;;;22.97;42.50;94699.13;4996620;28;20025;-82
2021/01/01 07:04:52;;;;;;;11.98;9.18;;;;;;;22.99;42.72;94699.38;4965258;28;20029;-76
2021/01/01 07:07:43;;;;;;;13.40;10.10;;;;;;;23.00;42.35;94693.41;4998061;28;20030;-72
2021/01/01 07:10:34;;;;;;;11.23;8.30;;;;;;;23.03;42.10;94700.56;5022448;28;20030;-82
2021/01/01 07:13:16;;;;;;;12.35;9.35;;;;;;;22.98;42.33;94704.06;5008484;28;20104;-82
2021/01/01 07:15:42;;;;;;;12.30;9.07;;;;;;;22.86;42.12;94679.47;5012291;28;20033;-80
2021/01/01 07:18:07;;;;;;;10.43;8.15;;;;;;;23.05;42.49;94708.94;4998810;28;20034;-72
2021/01/01 07:20:38;;;;;;;11.57;8.90;;;;;;;23.09;42.38;94703.94;5006789;28;20708;-72
2021/01/01 07:23:03;;;;;;;11.55;8.65;;;;;;;22.96;42.31;94687.50;4994587;28;20523;-75
2021/01/01 07:25:36;;;;;;;11.60;8.35;;;;;;;23.13;42.28;94715.28;4986530;28;20049;-72
2021/01/01 07:28:03;;;;;;;9.77;8.10;;;;;;;23.10;41.95;94710.84;5009452;28;20437;-76
2021/01/01 07:30:35;;;;;;;11.70;9.10;;;;;;;23.07;42.29;94717.31;4984813;28;20025;-77
2021/01/01 07:33:01;;;;;;;11.98;8.57;;;;;;;23.11;42.30;94715.06;5013691;28;20145;-77
2021/01/01 07:35:27;;;;;;;10.98;8.75;;;;;;;22.98;41.94;94714.97;4997293;28;20491;-79
2021/01/01 07:37:53;;;;;;;12.02;9.02;;;;;;;23.13;41.75;94720.72;4992761;28;20053;-76
2021/01/01 07:40:19;;;;;;;11.02;8.38;;;;;;;23.16;41.46;94725.13;5014065;28;20017;-79
2021/01/01 07:42:52;;;;;;;11.45;8.77;;;;;;;23.24;41.69;94731.47;4995778;28;20131;-76
2021/01/01 07:45:18;;;;;;;10.93;8.60;;;;;;;23.31;41.68;94730.88;5012813;28;20430;-75
2021/01/01 07:47:44;;;;;;;9.93;7.65;;;;;;;23.41;41.61;94734.72;5012254;28;20022;-75
2021/01/01 07:50:16;;;;;;;11.40;7.93;;;;;;;23.52;41.36;94729.13;5012455;28;20160;-76
2021/01/01 07:52:42;;;;;;;11.38;8.50;;;;;;;23.49;40.92;94713.78;5012210;28;20153;-72
2021/01/01 07:55:08;;;;;;;11.38;8.05;;;;;;;23.68;41.10;94731.63;5011986;28;20566;-75
2021/01/01 07:57:35;;;;;;;12.15;8.18;;;;;;;23.79;40.36;94741.66;5014629;28;20753;-74
2021/01/01 08:00:01;;;;;;;9.55;7.53;;;;;;;23.87;40.23;94730.34;4997679;28;20024;-75
2021/01/01 08:02:26;;;;;;;10.45;8.00;;;;;;;23.97;40.22;94747.78;5010534;28;20523;-72
2021/01/01 08:04:51;;;;;;;9.85;7.57;;;;;;;24.05;39.98;94731.56;5012329;28;20029;-72
2021/01/01 08:07:23;;;;;;;10.52;7.70;;;;;;;24.20;39.96;94748.94;4993574;28;20038;-74
2021/01/01 08:09:49;;;;;;;10.55;8.02;;;;;;;24.20;39.86;94743.47;5003140;28;20427;-73
2021/01/01 08:12:14;;;;;;;9.38;7.93;;;;;;;24.37;39.31;94752.16;5010303;28;20033;-71
2021/01/01 08:14:51;;;;;;;9.48;7.40;;;;;;;24.47;39.11;94755.97;4994399;28;20415;-72
2021/01/01 08:17:21;;;;;;;11.38;7.68;;;;;;;24.54;39.31;94760.78;5003589;28;20483;-69
2021/01/01 08:19:46;;;;;;;9.93;7.80;;;;;;;24.65;38.84;94763.31;5011425;28;20049;-74
2021/01/01 08:22:12;;;;;;;10.38;7.57;;;;;;;24.69;38.67;94761.00;5011577;28;20025;-72
2021/01/01 08:24:37;;;;;;;11.45;8.32;;;;;;;24.77;38.25;94762.59;5011521;28;20026;-74
2021/01/01 08:27:04;;;;;;;10.35;7.82;;;;;;;24.83;38.32;94765.97;4999012;28;20026;-69
2021/01/01 08:29:30;;;;;;;10.82;8.18;;;;;;;24.87;38.36;94761.66;5010516;28;20032;-74
2021/01/01 08:31:57;;;;;;;10.63;8.00;;;;;;;24.80;37.68;94739.72;5011251;28;20482;-76
2021/01/01 08:34:23;;;;;;;12.35;9.15;;;;;;;24.96;37.95;94763.97;4993706;28;20045;-72
2021/01/01 08:36:48;;;;;;;14.25;9.13;;;;;;;25.04;37.68;94762.09;4991157;28;20478;-71
2021/01/01 08:39:15;;;;;;;9.93;7.60;;;;;;;25.07;37.83;94766.53;5010645;28;20080;-72
2021/01/01 08:41:47;;;;;;;12.88;10.25;;;;;;;25.03;36.92;94774.28;5009567;28;20029;-76
2021/01/01 08:44:13;;;;;;;11.48;8.50;;;;;;;25.13;37.77;94775.34;5010635;28;20567;-70
2021/01/01 08:46:38;;;;;;;11.00;8.07;;;;;;;25.24;37.73;94777.84;5010318;28;20029;-69
2021/01/01 08:49:17;;;;;;;10.65;7.80;;;;;;;25.29;37.66;94779.75;5010771;28;20079;-74
2021/01/01 08:51:42;;;;;;;10.60;7.57;;;;;;;25.27;37.45;94767.88;5011065;28;20037;-74
2021/01/01 08:54:08;;;;;;;10.10;7.47;;;;;;;25.37;37.65;94775.13;5010973;28;20112;-72
2021/01/01 08:56:33;;;;;;;10.68;7.55;;;;;;;25.39;37.35;94772.59;5011404;28;20105;-73
2021/01/01 08:59:09;;;;;;;10.05;7.22;;;;;;;25.44;37.47;94763.53;4993109;28;20029;-72
2021/01/01 09:01:34;;;;;;;8.77;7.10;;;;;;;25.43;37.37;94767.53;5006782;28;20046;-73
2021/01/01 09:04:03;;;;;;;8.95;7.63;;;;;;;25.49;37.15;94765.44;4993576;28;20021;-74
2021/01/01 09:06:28;;;;;;;8.98;6.90;;;;;;;25.53;37.42;94772.03;5010909;28;20018;-74
2021/01/01 09:09:14;;;;;;;9.82;7.40;;;;;;;25.53;37.16;94771.28;5013291;28;20055;-75
2021/01/01 09:11:39;;;;;;;8.90;6.75;;;;;;;25.55;36.87;94774.25;4987710;28;20042;-74
2021/01/01 09:14:05;;;;;;;9.43;6.95;;;;;;;25.63;37.16;94778.53;5003060;28;20036;-76
2021/01/01 09:16:31;;;;;;;9.57;7.32;;;;;;;25.56;37.15;94759.28;5007536;28;20074;-70
2021/01/01 09:19:07;;;;;;;9.32;7.50;;;;;;;25.68;36.75;94774.22;5008663;28;20025;-72
2021/01/01 09:21:32;;;;;;;8.30;6.63;;;;;;;25.75;36.95;94779.06;5009684;28;20033;-69
2021/01/01 09:23:58;;;;;;;8.95;6.60;;;;;;;25.73;36.64;94774.13;5009638;28;20036;-73
2021/01/01 09:26:27;;;;;;;8.40;6.40;;;;;;;25.74;36.74;94794.00;5008764;28;20132;-71
2021/01/01 09:29:06;;;;;;;8.52;6.45;;;;;;;25.76;36.44;94783.28;4992098;28;20025;-71
2021/01/01 09:31:32;;;;;;;9.23;7.05;;;;;;;25.79;36.57;94782.22;5007401;28;20519;-71
2021/01/01 09:34:03;;;;;;;9.25;6.65;;;;;;;25.81;36.33;94775.69;5009383;28;20054;-69
2021/01/01 09:36:32;;;;;;;8.93;6.82;;;;;;;25.82;36.41;94777.13;5009483;28;20021;-72
2021/01/01 09:38:59;;;;;;;9.20;6.57;;;;;;;25.87;36.51;94781.78;5007366;28;20727;-74
2021/01/01 09:41:25;;;;;;;8.57;6.20;;;;;;;25.93;36.26;94782.38;5009103;28;20022;-70
2021/01/01 09:43:50;;;;;;;9.00;6.43;;;;;;;25.97;36.32;94787.53;5009059;28;20080;-70
2021/01/01 09:46:16;;;;;;;7.63;6.32;;;;;;;25.90;36.08;94767.03;5009446;28;20022;-70
2021/01/01 09:48:41;;;;;;;8.98;6.53;;;;;;;26.04;36.34;94781.41;5009064;28;20204;-72
2021/01/01 09:51:07;;;;;;;9.23;6.00;;;;;;;26.02;36.19;94772.97;5007934;28;20079;-80
2021/01/01 09:53:32;;;;;;;7.70;6.05;;;;;;;26.05;36.05;94778.13;5010304;28;20022;-70
2021/01/01 09:55:58;;;;;;;8.20;6.35;;;;;;;26.11;36.06;94786.94;5010227;28;20026;-70
2021/01/01 09:58:23;;;;;;;8.05;6.35;;;;;;;26.13;35.84;94773.47;5008509;28;20029;-69
2021/01/01 10:00:49;;;;;;;9.43;6.20;;;;;;;26.15;36.08;94770.19;4997358;28;20041;-71
2021/01/01 10:03:14;;;;;;;9.75;6.63;;;;;;;26.14;35.61;94757.75;4983004;28;20029;-70
2021/01/01 10:05:39;;;;;;;8.82;6.53;;;;;;;26.27;35.71;94771.41;4992754;28;20171;-73
2021/01/01 10:08:05;;;;;;;9.23;6.63;;;;;;;26.25;35.67;94760.97;5009640;28;20039;-72
2021/01/01 10:10:33;;;;;;;8.32;6.22;;;;;;;26.30;35.67;94765.59;5009329;28;20045;-74
2021/01/01 10:13:01;;;;;;;8.07;6.22;;;;;;;26.33;35.73;94770.00;5010526;28;20034;-74
2021/01/01 10:15:27;;;;;;;8.07;6.17;;;;;;;26.33;35.45;94764.53;5009434;28;20048;-73
2021/01/01 10:17:52;;;;;;;8.77;6.45;;;;;;;26.32;35.63;94765.81;5010054;28;20021;-74
2021/01/01 10:20:18;;;;;;;8.38;6.00;;;;;;;26.28;35.70;94746.25;5007026;28;20423;-72
2021/01/01 10:22:43;;;;;;;8.25;6.13;;;;;;;26.36;35.56;94758.00;5004378;28;20486;-74
2021/01/01 10:25:10;;;;;;;8.50;6.18;;;;;;;26.35;35.73;94745.56;4999614;28;20052;-80
2021/01/01 10:27:35;;;;;;;7.82;5.75;;;;;;;26.47;35.58;94757.72;5016536;28;20044;-76
2021/01/01 10:30:01;;;;;;;8.23;5.95;;;;;;;26.50;35.58;94762.13;5010464;28;20019;-71
2021/01/01 10:32:26;;;;;;;8.32;5.88;;;;;;;26.47;35.54;94735.81;5004960;28;20069;-74
2021/01/01 10:34:52;;;;;;;7.05;5.43;;;;;;;26.45;35.37;94732.88;5022345;28;20033;-79
2021/01/01 10:37:17;;;;;;;7.40;5.63;;;;;;;26.52;35.53;94743.16;4998159;28;20022;-73
2021/01/01 10:39:43;;;;;;;7.47;5.70;;;;;;;26.48;35.64;94740.03;4999321;28;20036;-73
2021/01/01 10:42:09;;;;;;;7.13;5.55;;;;;;;26.54;35.75;94740.63;4996683;28;20037;-76
2021/01/01 10:44:34;;;;;;;8.55;5.68;;;;;;;26.59;35.44;94734.25;4990723;28;20030;-74
2021/01/01 10:47:00;;;;;;;6.43;5.40;;;;;;;26.62;35.53;94730.44;5006445;28;20014;-75
2021/01/01 10:49:25;;;;;;;7.88;6.13;;;;;;;26.64;35.40;94727.91;5010619;28;20645;-75
2021/01/01 10:51:51;;;;;;;7.82;6.15;;;;;;;26.65;35.71;94726.63;5010823;28;20025;-75
2021/01/01 10:54:16;;;;;;;8.13;5.35;;;;;;;26.64;35.40;94727.91;4952357;28;20046;-76
2021/01/01 10:56:44;;;;;;;7.55;5.45;;;;;;;26.64;35.47;94716.97;4975282;28;20062;-75
2021/01/01 10:59:10;;;;;;;6.60;5.07;;;;;;;26.62;35.56;94720.25;5002223;28;20029;-78
2021/01/01 11:01:35;;;;;;;7.38;5.57;;;;;;;26.67;35.46;94716.59;4992365;28;20026;-74
2021/01/01 11:04:01;;;;;;;7.43;5.38;;;;;;;26.54;35.46;94685.84;4989384;28;20495;-73
2021/01/01 11:06:26;;;;;;;7.70;5.72;;;;;;;26.67;35.45;94710.41;5003342;28;20026;-74
2021/01/01 11:08:52;;;;;;;7.25;5.30;;;;;;;26.74;35.32;94709.69;5008068;28;20418;-73
2021/01/01 11:11:21;;;;;;;6.13;4.82;;;;;;;26.73;35.17;94708.25;5008710;28;20025;-70
2021/01/01 11:14:02;;;;;;;7.65;5.75;;;;;;;26.68;35.11;94689.94;5008963;28;20018;-72
2021/01/01 12:25:21;;;;;;;6.25;4.05;;;;;;;27.08;35.88;94727.47;4994583;28;20514;-69
2021/01/01 12:27:46;;;;;;;5.60;4.30;;;;;;;27.10;35.59;94725.69;5011353;28;20026;-69
2021/01/01 12:30:12;;;;;;;5.78;4.43;;;;;;;26.97;35.48;94712.06;5011383;28;20462;-69
2021/01/01 12:32:38;;;;;;;5.68;4.35;;;;;;;27.09;35.56;94732.41;5009624;28;20522;-70
2021/01/01 12:35:04;;;;;;;6.65;3.95;;;;;;;27.06;35.71;94725.28;5011225;28;20116;-70